Time;durP1;ratioP1;P1;durP2;ratioP2;P2;SDS_P1;SDS_P2;PMS_P1;PMS_P2;Temp;Humidity;BMP_temperature;BMP_pressure;BME280_temperature;BME280_humidity;BME280_pressure;Samples;Min_cycle;Max_cycle;Signal;HPM_P1;HPM_P2
2023/04/07 00:02:09;;;;;;;;;;;;;;;7.55;100.00;101415.28;5027519;28;20428;-78
2023/04/07 00:04:34;;;;;;;;;;;;;;;7.50;100.00;101413.72;5028468;28;20327;-79
2023/04/07 00:07:00;;;;;;;;;;;;;;;7.55;100.00;101417.97;5019253;28;20227;-78
2023/04/07 00:09:25;;;;;;;;;;;;;;;7.50;100.00;101418.19;5035049;28;19925;-78
2023/04/07 00:11:50;;;;;;;;;;;;;;;7.52;100.00;101420.81;5024308;28;20018;-79
2023/04/07 00:14:15;;;;;;;;;;;;;;;7.49;100.00;101427.16;5014195;28;20559;-78
2023/04/07 00:16:41;;;;;;;;;;;;;;;7.50;100.00;101418.19;5017770;28;19959;-79
2023/04/07 00:19:06;;;;;;;;;;;;;;;7.45;100.00;101421.13;5030091;28;20015;-79
2023/04/07 00:21:31;;;;;;;;;;;;;;;7.48;100.00;101425.44;5022710;28;19921;-78
2023/04/07 00:23:56;;;;;;;;;;;;;;;7.49;100.00;101421.81;5016361;28;19924;-79
2023/04/07 00:26:21;;;;;;;;;;;;;;;7.44;100.00;101430.09;5011262;28;19952;-79
2023/04/07 00:28:47;;;;;;;;;;;;;;;7.51;100.00;101422.59;5049183;28;20374;-79
2023/04/07 00:31:12;;;;;;;;;;;;;;;7.49;100.00;101421.81;5027794;28;20482;-79
2023/04/07 00:33:37;;;;;;;;;;;;;;;7.49;100.00;101424.50;5018408;28;20340;-79
2023/04/07 00:36:02;;;;;;;;;;;;;;;7.48;100.00;101417.41;5015365;28;19964;-79
2023/04/07 00:38:28;;;;;;;;;;;;;;;7.50;100.00;101418.19;5017801;28;20345;-79
2023/04/07 00:40:57;;;;;;;;;;;;;;;7.50;100.00;101419.09;5030243;28;20019;-79
2023/04/07 00:43:22;;;;;;;;;;;;;;;7.51;100.00;101422.59;5011939;28;19964;-79
2023/04/07 00:45:47;;;;;;;;;;;;;;;7.58;100.00;101418.66;5025011;28;20012;-79
2023/04/07 00:48:12;;;;;;;;;;;;;;;7.59;100.00;101422.16;5020587;28;19924;-79
2023/04/07 00:50:38;;;;;;;;;;;;;;;7.49;100.00;101419.16;5009039;28;19921;-78
2023/04/07 00:53:03;;;;;;;;;;;;;;;7.43;100.00;101414.13;5011024;28;20312;-79
2023/04/07 00:55:28;;;;;;;;;;;;;;;7.42;100.00;101420.44;5027510;28;20369;-79
2023/04/07 00:57:54;;;;;;;;;;;;;;;7.38;100.00;101417.06;5021349;28;19921;-79
2023/04/07 01:00:19;;;;;;;;;;;;;;;7.37;100.00;101417.16;5004295;28;19921;-79
2023/04/07 01:02:47;;;;;;;;;;;;;;;7.39;100.00;101423.28;5026163;28;20417;-80
2023/04/07 01:05:12;;;;;;;;;;;;;;;7.38;100.00;101409.06;5029686;28;19921;-79
2023/04/07 01:07:41;;;;;;;;;;;;;;;7.37;100.00;101415.34;5026590;28;20344;-79
2023/04/07 01:10:06;;;;;;;;;;;;;;;7.33;100.00;101424.47;5019745;28;19921;-79
2023/04/07 01:12:40;;;;;;;;;;;;;;;7.32;100.00;101428.09;5027540;28;19950;-79
2023/04/07 01:15:07;;;;;;;;;;;;;;;7.38;100.00;101417.06;5028178;28;20379;-79
2023/04/07 01:17:32;;;;;;;;;;;;;;;7.24;100.00;101425.84;5024898;28;19924;-80
2023/04/07 01:19:58;;;;;;;;;;;;;;;7.28;100.00;101429.22;5006798;28;20417;-78
2023/04/07 01:22:42;;;;;;;;;;;;;;;7.26;100.00;101423.94;5012445;28;19960;-79
2023/04/07 01:25:17;;;;;;;;;;;;;;;7.15;100.00;101426.38;5025437;28;20455;-80
2023/04/07 01:27:46;;;;;;;;;;;;;;;7.15;100.00;101423.69;5007113;28;19955;-79
2023/04/07 01:30:12;;;;;;;;;;;;;;;7.15;100.00;101432.56;4999114;28;20027;-80
2023/04/07 01:32:38;;;;;;;;;;;;;;;7.15;100.00;101416.53;5024118;28;19982;-80
2023/04/07 01:35:05;;;;;;;;;;;;;;;7.15;100.00;101432.56;5017294;28;20292;-80
2023/04/07 01:37:30;;;;;;;;;;;;;;;7.17;100.00;101436.00;5025670;28;20213;-80
2023/04/07 01:39:55;;;;;;;;;;;;;;;7.08;100.00;101435.63;5021250;28;20060;-81
2023/04/07 01:42:20;;;;;;;;;;;;;;;7.04;100.00;101445.59;5009683;28;19920;-79
2023/04/07 01:44:46;;;;;;;;;;;;;;;7.05;100.00;101439.31;5014667;28;19966;-79
2023/04/07 01:47:11;;;;;;;;;;;;;;;7.02;100.00;101432.34;5016313;28;20098;-79
2023/04/07 01:49:37;;;;;;;;;;;;;;;7.01;100.00;101435.13;5029673;28;20303;-79
2023/04/07 01:52:02;;;;;;;;;;;;;;;6.99;100.00;101437.00;5021768;28;20339;-79
2023/04/07 01:54:27;;;;;;;;;;;;;;;6.99;100.00;101431.66;5000191;28;20469;-80
2023/04/07 01:56:52;;;;;;;;;;;;;;;7.02;100.00;101435.03;5002320;28;20276;-79
2023/04/07 01:59:18;;;;;;;;;;;;;;;6.85;100.00;101419.03;5026164;28;20361;-79
2023/04/07 02:01:43;;;;;;;;;;;;;;;6.96;100.00;101435.34;5015184;28;20219;-80
2023/04/07 02:04:13;;;;;;;;;;;;;;;6.98;100.00;101433.44;5033187;28;19917;-79
2023/04/07 02:07:05;;;;;;;;;;;;;;;6.94;100.00;101437.22;5012104;28;20446;-80
2023/04/07 02:09:30;;;;;;;;;;;;;;;6.97;100.00;101433.53;5027816;28;19925;-79
2023/04/07 02:11:56;;;;;;;;;;;;;;;6.98;100.00;101441.47;5015309;28;20022;-80
2023/04/07 02:14:23;;;;;;;;;;;;;;;6.94;100.00;101447.06;5016656;28;19979;-78
2023/04/07 02:16:48;;;;;;;;;;;;;;;6.97;100.00;101444.22;5011014;28;20011;-80
2023/04/07 02:19:13;;;;;;;;;;;;;;;6.98;100.00;101456.63;5027060;28;20028;-80
2023/04/07 02:21:39;;;;;;;;;;;;;;;6.96;100.00;101447.84;5016083;28;19928;-79
2023/04/07 02:24:07;;;;;;;;;;;;;;;6.98;100.00;101452.13;5014161;28;19960;-79
2023/04/07 02:26:33;;;;;;;;;;;;;;;7.01;100.00;101456.47;5017187;28;19932;-80
2023/04/07 02:28:59;;;;;;;;;;;;;;;6.95;100.00;101457.63;5011394;28;20039;-80
2023/04/07 02:31:24;;;;;;;;;;;;;;;6.98;100.00;101452.13;5013359;28;20550;-80
2023/04/07 02:33:49;;;;;;;;;;;;;;;7.00;100.00;101465.44;5023702;28;20306;-80
2023/04/07 02:36:14;;;;;;;;;;;;;;;7.04;100.00;101465.19;5027281;28;20059;-80
2023/04/07 02:38:40;;;;;;;;;;;;;;;7.02;100.00;101463.50;5023693;28;19960;-80
2023/04/07 02:41:05;;;;;;;;;;;;;;;6.96;100.00;101462.03;5009713;28;20483;-80
2023/04/07 02:43:30;;;;;;;;;;;;;;;7.00;100.00;101468.94;5023518;28;19963;-79
2023/04/07 02:45:55;;;;;;;;;;;;;;;6.95;100.00;101459.47;5007381;28;19984;-79
2023/04/07 02:48:21;;;;;;;;;;;;;;;6.95;100.00;101464.81;5020051;28;19948;-79
2023/04/07 02:50:46;;;;;;;;;;;;;;;6.95;100.00;101451.44;5042690;28;19920;-79
2023/04/07 02:53:11;;;;;;;;;;;;;;;6.99;100.00;101455.69;5027922;28;20011;-77
2023/04/07 02:55:36;;;;;;;;;;;;;;;6.87;100.00;101450.03;5009776;28;20364;-81
2023/04/07 02:58:02;;;;;;;;;;;;;;;6.86;100.00;101453.66;5016829;28;19944;-79
2023/04/07 03:00:27;;;;;;;;;;;;;;;6.92;100.00;101459.63;5030230;28;19921;-79
2023/04/07 03:02:52;;;;;;;;;;;;;;;6.88;100.00;101457.09;5026325;28;20003;-79
2023/04/07 03:05:17;;;;;;;;;;;;;;;6.93;100.00;101458.69;5051588;28;19920;-79
2023/04/07 03:07:43;;;;;;;;;;;;;;;6.97;100.00;101461.09;5030034;28;19921;-79
2023/04/07 03:10:08;;;;;;;;;;;;;;;6.92;100.00;101460.47;5020449;28;20351;-80
2023/04/07 03:12:33;;;;;;;;;;;;;;;6.91;100.00;101458.75;5038265;28;19917;-80
2023/04/07 03:14:59;;;;;;;;;;;;;;;6.87;100.00;101463.38;5025188;28;20005;-80
2023/04/07 03:17:24;;;;;;;;;;;;;;;6.93;100.00;101462.19;5023966;28;20472;-79
2023/04/07 03:19:50;;;;;;;;;;;;;;;6.90;100.00;101470.34;5015414;28;20539;-79
2023/04/07 03:22:15;;;;;;;;;;;;;;;6.93;100.00;101464.00;5018436;28;19928;-79
2023/04/07 03:24:41;;;;;;;;;;;;;;;6.94;100.00;101466.59;5040319;28;19921;-80
2023/04/07 03:27:06;;;;;;;;;;;;;;;6.95;100.00;101470.13;5011658;28;20184;-80
2023/04/07 03:29:31;;;;;;;;;;;;;;;6.97;100.00;101457.56;5014868;28;19935;-79
2023/04/07 03:31:57;;;;;;;;;;;;;;;6.96;100.00;101459.38;5035715;28;19925;-80
2023/04/07 03:34:22;;;;;;;;;;;;;;;7.02;100.00;101460.84;5032811;28;19964;-79
2023/04/07 03:36:47;;;;;;;;;;;;;;;7.00;100.00;101462.75;5007553;28;20012;-79
2023/04/07 03:39:12;;;;;;;;;;;;;;;6.99;100.00;101461.88;5030574;28;19925;-79
2023/04/07 03:41:37;;;;;;;;;;;;;;;6.86;100.00;101450.13;5025513;28;19920;-79
2023/04/07 03:44:03;;;;;;;;;;;;;;;6.99;100.00;101461.03;5029033;28;19924;-80
2023/04/07 03:46:28;;;;;;;;;;;;;;;6.99;100.00;101467.22;5031379;28;19967;-79
2023/04/07 03:48:53;;;;;;;;;;;;;;;6.96;100.00;101463.84;5015809;28;20015;-80
2023/04/07 03:51:19;;;;;;;;;;;;;;;6.88;100.00;101465.13;5006280;28;19943;-79
2023/04/07 03:53:45;;;;;;;;;;;;;;;6.88;100.00;101466.94;5030763;28;19931;-79
2023/04/07 03:56:10;;;;;;;;;;;;;;;6.90;100.00;101465.03;5029902;28;19921;-79
2023/04/07 03:58:35;;;;;;;;;;;;;;;6.87;100.00;101473.22;5010533;28;20059;-80
2023/04/07 04:01:00;;;;;;;;;;;;;;;6.93;100.00;101469.34;5023269;28;19995;-79
2023/04/07 04:03:26;;;;;;;;;;;;;;;6.93;100.00;101474.69;5031572;28;20294;-80
2023/04/07 04:05:51;;;;;;;;;;;;;;;6.94;100.00;101479.94;5042207;28;19936;-79
2023/04/07 04:08:16;;;;;;;;;;;;;;;6.88;100.00;101474.94;5020792;28;19928;-78
2023/04/07 04:10:41;;;;;;;;;;;;;;;6.92;100.00;101472.97;5034618;28;19923;-79
2023/04/07 04:13:07;;;;;;;;;;;;;;;6.94;100.00;101471.09;5020878;28;20350;-78
2023/04/07 04:15:32;;;;;;;;;;;;;;;6.88;100.00;101475.78;5037255;28;20469;-79
2023/04/07 04:17:57;;;;;;;;;;;;;;;6.92;100.00;101472.97;5033154;28;19933;-79
2023/04/07 04:20:22;;;;;;;;;;;;;;;6.93;100.00;101475.53;5037194;28;20213;-79
2023/04/07 04:22:49;;;;;;;;;;;;;;;6.96;100.00;101475.38;5033179;28;19920;-78
2023/04/07 04:25:15;;;;;;;;;;;;;;;6.89;100.00;101476.63;5016194;28;19999;-79
2023/04/07 04:27:40;;;;;;;;;;;;;;;6.82;100.00;101478.78;5036571;28;19927;-79
2023/04/07 04:30:06;;;;;;;;;;;;;;;6.90;100.00;101481.03;5010160;28;19921;-79
2023/04/07 04:32:32;;;;;;;;;;;;;;;6.88;100.00;101480.28;5032734;28;20453;-78
2023/04/07 04:34:57;;;;;;;;;;;;;;;6.90;100.00;101483.72;5007716;28;19972;-80
2023/04/07 04:37:22;;;;;;;;;;;;;;;6.85;100.00;101489.28;5043807;28;20016;-78
2023/04/07 04:39:47;;;;;;;;;;;;;;;6.85;100.00;101486.63;5010056;28;19962;-79
2023/04/07 04:42:13;;;;;;;;;;;;;;;6.85;100.00;101493.78;5026418;28;20404;-78
2023/04/07 04:44:38;;;;;;;;;;;;;;;6.88;100.00;101497.16;5018520;28;19917;-77
2023/04/07 04:47:03;;;;;;;;;;;;;;;6.86;100.00;101500.84;5007025;28;19921;-77
2023/04/07 04:49:28;;;;;;;;;;;;;;;6.87;100.00;101494.56;5002698;28;19921;-79
2023/04/07 04:51:53;;;;;;;;;;;;;;;6.88;100.00;101491.81;5007671;28;19928;-77
2023/04/07 04:54:19;;;;;;;;;;;;;;;6.91;100.00;101496.13;5002672;28;19967;-78
2023/04/07 04:56:44;;;;;;;;;;;;;;;6.90;100.00;101495.25;5022240;28;19920;-78
2023/04/07 04:59:09;;;;;;;;;;;;;;;7.00;100.00;101492.97;5024851;28;20035;-77
2023/04/07 05:01:34;;;;;;;;;;;;;;;7.05;100.00;101495.38;5024474;28;19927;-78
2023/04/07 05:04:00;;;;;;;;;;;;;;;6.95;100.00;101484.34;5022073;28;19921;-78
2023/04/07 05:06:26;;;;;;;;;;;;;;;7.05;100.00;101496.28;5035386;28;19991;-78
2023/04/07 05:08:51;;;;;;;;;;;;;;;6.95;100.00;101505.69;5012981;28;19927;-77
2023/04/07 05:11:16;;;;;;;;;;;;;;;6.85;100.00;101505.31;5025696;28;20721;-78
2023/04/07 05:13:42;;;;;;;;;;;;;;;6.83;100.00;101504.53;5019815;28;20638;-78
2023/04/07 05:16:07;;;;;;;;;;;;;;;6.93;100.00;101509.41;5028209;28;19925;-77
2023/04/07 05:18:32;;;;;;;;;;;;;;;6.91;100.00;101509.47;5020989;28;19937;-78
2023/04/07 05:20:57;;;;;;;;;;;;;;;6.93;100.00;101515.59;5034686;28;20065;-77
2023/04/07 05:23:22;;;;;;;;;;;;;;;6.88;100.00;101515.00;5019498;28;19917;-77
2023/04/07 05:25:48;;;;;;;;;;;;;;;6.90;100.00;101516.63;5023024;28;19921;-77
2023/04/07 05:28:13;;;;;;;;;;;;;;;6.90;100.00;101524.63;5014982;28;19925;-78
2023/04/07 05:30:38;;;;;;;;;;;;;;;6.99;100.00;101522.44;5019967;28;19921;-77
2023/04/07 05:33:03;;;;;;;;;;;;;;;6.97;100.00;101516.31;5005864;28;20188;-78
2023/04/07 05:35:29;;;;;;;;;;;;;;;6.95;100.00;101523.53;5027898;28;19924;-78
2023/04/07 05:37:55;;;;;;;;;;;;;;;6.86;100.00;101499.03;5041392;28;19917;-78
2023/04/07 05:40:20;;;;;;;;;;;;;;;7.01;100.00;101524.06;5016235;28;19920;-78
2023/04/07 05:42:45;;;;;;;;;;;;;;;6.98;100.00;101531.38;5018721;28;20231;-78
2023/04/07 05:45:10;;;;;;;;;;;;;;;6.90;100.00;101532.63;5018368;28;19921;-79
2023/04/07 05:47:35;;;;;;;;;;;;;;;6.89;100.00;101536.25;5016958;28;19917;-78
2023/04/07 05:50:01;;;;;;;;;;;;;;;6.95;100.00;101535.06;5017205;28;20015;-77
2023/04/07 05:52:26;;;;;;;;;;;;;;;6.84;100.00;101514.25;5019247;28;19978;-78
2023/04/07 05:54:51;;;;;;;;;;;;;;;7.04;100.00;101545.28;5024178;28;20119;-77
2023/04/07 05:57:16;;;;;;;;;;;;;;;7.07;100.00;101546.06;5031959;28;19956;-78
2023/04/07 05:59:42;;;;;;;;;;;;;;;7.12;100.00;101547.53;5030089;28;20020;-78
2023/04/07 06:02:07;;;;;;;;;;;;;;;7.09;100.00;101545.03;5030285;28;19921;-78
2023/04/07 06:04:34;;;;;;;;;;;;;;;7.09;100.00;101546.84;5005541;28;19948;-78
2023/04/07 06:06:59;;;;;;;;;;;;;;;7.08;100.00;101551.31;5007923;28;19921;-78
2023/04/07 06:09:24;;;;;;;;;;;;;;;7.13;100.00;101551.94;5021139;28;19921;-78
2023/04/07 06:11:50;;;;;;;;;;;;;;;7.11;100.00;101551.16;5025179;28;19917;-77
2023/04/07 06:14:16;;;;;;;;;;;;;;;7.19;100.00;101550.75;5014740;28;19952;-77
2023/04/07 06:16:41;;;;;;;;;;;;;;;7.11;100.00;101553.81;5020768;28;19916;-78
2023/04/07 06:19:06;;;;;;;;;;;;;;;7.20;100.00;101560.50;5024097;28;19921;-78
2023/04/07 06:21:32;;;;;;;;;;;;;;;7.24;100.00;101556.72;5033825;28;19982;-78
2023/04/07 06:23:57;;;;;;;;;;;;;;;7.29;100.00;101561.81;5021206;28;19927;-77
2023/04/07 06:26:22;;;;;;;;;;;;;;;7.34;100.00;101563.31;5012517;28;19931;-78
2023/04/07 06:28:47;;;;;;;;;;;;;;;7.28;100.00;101563.63;5013840;28;19972;-77
2023/04/07 06:31:13;;;;;;;;;;;;;;;7.15;100.00;101542.03;5020353;28;19921;-78
2023/04/07 06:33:38;;;;;;;;;;;;;;;7.32;100.00;101570.56;5017237;28;19987;-78
2023/04/07 06:36:05;;;;;;;;;;;;;;;7.22;100.00;101579.97;5031929;28;20133;-78
2023/04/07 06:38:30;;;;;;;;;;;;;;;7.19;100.00;101572.13;5030912;28;19924;-77
2023/04/07 06:40:55;;;;;;;;;;;;;;;7.26;100.00;101575.34;5021555;28;19921;-78
2023/04/07 06:43:21;;;;;;;;;;;;;;;7.26;100.00;101570.00;5017416;28;19928;-78
2023/04/07 06:45:46;;;;;;;;;;;;;;;7.34;100.00;101576.69;5019284;28;19921;-78
2023/04/07 06:48:11;;;;;;;;;;;;;;;7.17;100.00;101572.22;5024023;28;19927;-78
2023/04/07 06:50:39;;;;;;;;;;;;;;;7.27;100.00;101577.94;5025649;28;19928;-77
2023/04/07 06:53:04;;;;;;;;;;;;;;;7.17;100.00;101555.31;5011650;28;20433;-77
2023/04/07 06:55:30;;;;;;;;;;;;;;;7.35;100.00;101585.53;5018642;28;19925;-78
2023/04/07 06:57:55;;;;;;;;;;;;;;;7.29;100.00;101588.53;5028795;28;19921;-77
2023/04/07 07:00:21;;;;;;;;;;;;;;;7.32;100.00;101601.72;5012112;28;19921;-76
2023/04/07 07:02:47;;;;;;;;;;;;;;;7.38;100.00;101596.06;5013601;28;19917;-77
2023/04/07 07:05:12;;;;;;;;;;;;;;;7.38;100.00;101598.75;5024078;28;20291;-76
2023/04/07 07:07:37;;;;;;;;;;;;;;;7.38;100.00;101598.75;5024032;28;20478;-76
2023/04/07 07:10:03;;;;;;;;;;;;;;;7.39;100.00;101605.81;5023058;28;19921;-76
2023/04/07 07:12:28;;;;;;;;;;;;;;;7.39;100.00;101610.31;5024412;28;19917;-77
2023/04/07 07:14:53;;;;;;;;;;;;;;;7.35;100.00;101604.25;5029114;28;20315;-77
2023/04/07 07:17:18;;;;;;;;;;;;;;;7.39;100.00;101603.16;5028060;28;19921;-77
2023/04/07 07:19:44;;;;;;;;;;;;;;;7.52;100.00;101602.50;5023295;28;20009;-77
2023/04/07 07:22:09;;;;;;;;;;;;;;;7.57;100.00;101609.34;5029043;28;19921;-76
2023/04/07 07:24:34;;;;;;;;;;;;;;;7.47;100.00;101608.97;5018304;28;19921;-77
2023/04/07 07:27:01;;;;;;;;;;;;;;;7.58;100.00;101616.41;5027702;28;19928;-77
2023/04/07 07:29:26;;;;;;;;;;;;;;;7.62;100.00;101619.78;5028406;28;19928;-77
2023/04/07 07:31:51;;;;;;;;;;;;;;;7.54;100.00;101616.66;5021639;28;19917;-77
2023/04/07 07:34:16;;;;;;;;;;;;;;;7.61;100.00;101613.56;5027489;28;19925;-77
2023/04/07 07:36:42;;;;;;;;;;;;;;;7.68;100.00;101615.94;5002861;28;19952;-76
2023/04/07 07:39:07;;;;;;;;;;;;;;;7.76;100.00;101614.56;5026801;28;20023;-77
2023/04/07 07:41:32;;;;;;;;;;;;;;;7.86;100.00;101617.59;5037039;28;20233;-77
2023/04/07 07:43:57;;;;;;;;;;;;;;;8.01;100.00;101618.59;5018308;28;19924;-76
2023/04/07 07:46:24;;;;;;;;;;;;;;;8.06;100.00;101627.22;5028106;28;19921;-76
2023/04/07 07:48:50;;;;;;;;;;;;;;;8.16;100.00;101624.03;5016576;28;20426;-77
2023/04/07 07:51:15;;;;;;;;;;;;;;;8.14;100.00;101621.47;5028603;28;19928;-77
2023/04/07 07:53:40;;;;;;;;;;;;;;;8.24;100.00;101625.31;5016121;28;19924;-76
2023/04/07 07:56:05;;;;;;;;;;;;;;;8.14;100.00;101625.91;5026988;28;19948;-77
2023/04/07 07:58:31;;;;;;;;;;;;;;;8.25;100.00;101627.06;5030598;28;19951;-77
2023/04/07 08:00:56;;;;;;;;;;;;;;;8.22;100.00;101624.53;5020456;28;19956;-76
2023/04/07 08:03:21;;;;;;;;;;;;;;;8.18;100.00;101631.03;5018162;28;20371;-77
2023/04/07 08:05:47;;;;;;;;;;;;;;;8.20;100.00;101628.28;5009269;28;20462;-76
2023/04/07 08:08:12;;;;;;;;;;;;;;;8.20;100.00;101631.81;5019371;28;20259;-77
2023/04/07 08:10:38;;;;;;;;;;;;;;;8.35;100.00;101634.59;5028092;28;19920;-76
2023/04/07 08:13:04;;;;;;;;;;;;;;;8.48;100.00;101641.00;5030624;28;20399;-76
2023/04/07 08:15:29;;;;;;;;;;;;;;;8.64;100.00;101638.31;5026922;28;19991;-77
2023/04/07 08:17:55;;;;;;;;;;;;;;;8.69;100.00;101641.59;5031862;28;20371;-75
2023/04/07 08:20:20;;;;;;;;;;;;;;;8.60;100.00;101639.47;5006738;28;19921;-76
2023/04/07 08:22:45;;;;;;;;;;;;;;;8.61;100.00;101643.00;5031158;28;20543;-77
2023/04/07 08:25:10;;;;;;;;;;;;;;;8.59;100.00;101651.13;5020733;28;19926;-76
2023/04/07 08:27:35;;;;;;;;;;;;;;;8.55;100.00;101652.25;5014085;28;19921;-76
2023/04/07 08:30:02;;;;;;;;;;;;;;;8.43;100.00;101645.72;5024659;28;19991;-77
2023/04/07 08:32:40;;;;;;;;;;;;;;;8.36;100.00;101652.38;5021874;28;19967;-76
2023/04/07 08:35:06;;;;;;;;;;;;;;;8.34;100.00;101663.13;5012520;28;20425;-75
2023/04/07 08:37:31;;;;;;;;;;;;;;;8.36;100.00;101665.75;5011238;28;19921;-77
2023/04/07 08:39:56;;;;;;;;;;;;;;;8.42;100.00;101662.75;5027201;28;19963;-77
2023/04/07 08:42:22;;;;;;;;;;;;;;;8.39;100.00;101663.75;5025332;28;19921;-78
2023/04/07 08:44:47;;;;;;;;;;;;;;;8.48;100.00;101667.75;5024130;28;20252;-77
2023/04/07 08:47:12;;;;;;;;;;;;;;;8.50;100.00;101667.69;5018087;28;19998;-77
2023/04/07 08:49:38;;;;;;;;;;;;;;;8.51;100.00;101672.94;5034211;28;20015;-77
2023/04/07 08:52:03;;;;;;;;;;;;;;;8.46;100.00;101672.31;5019883;28;19924;-76
2023/04/07 08:54:28;;;;;;;;;;;;;;;8.48;100.00;101674.91;5007572;28;20291;-78
2023/04/07 08:56:53;;;;;;;;;;;;;;;8.52;100.00;101677.34;5020044;28;19921;-77
2023/04/07 08:59:24;;;;;;;;;;;;;;;8.53;100.00;101663.00;5025164;28;20240;-77
2023/04/07 09:01:49;;;;;;;;;;;;;;;8.75;100.00;101679.69;5022357;28;19921;-77
2023/04/07 09:04:15;;;;;;;;;;;;;;;8.75;100.00;101680.53;5020711;28;19963;-77
2023/04/07 09:06:40;;;;;;;;;;;;;;;8.85;100.00;101672.88;5025872;28;19923;-77
2023/04/07 09:09:05;;;;;;;;;;;;;;;8.97;100.00;101676.66;5020362;28;19925;-77
2023/04/07 09:11:34;;;;;;;;;;;;;;;9.09;100.00;101681.28;5032574;28;19924;-77
2023/04/07 09:14:00;;;;;;;;;;;;;;;9.10;100.00;101679.50;5022979;28;19929;-77
2023/04/07 09:16:26;;;;;;;;;;;;;;;9.14;100.00;101684.56;5011491;28;19971;-77
2023/04/07 09:18:51;;;;;;;;;;;;;;;9.18;100.00;101682.56;5028080;28;19920;-76
2023/04/07 09:21:17;;;;;;;;;;;;;;;9.09;100.00;101689.31;5033641;28;20364;-78
2023/04/07 09:23:42;;;;;;;;;;;;;;;8.79;100.00;101689.28;5016593;28;19925;-77
2023/04/07 09:26:16;;;;;;;;;;;;;;;8.63;100.00;101697.31;5012880;28;20145;-78
2023/04/07 09:28:42;;;;;;;;;;;;;;;8.63;100.00;101689.28;5034215;28;19921;-78
2023/04/07 09:31:08;;;;;;;;;;;;;;;8.69;100.00;101694.28;5022918;28;20019;-77
2023/04/07 09:33:33;;;;;;;;;;;;;;;8.64;100.00;101688.31;5027787;28;19930;-78
2023/04/07 09:35:58;;;;;;;;;;;;;;;8.76;100.00;101695.66;5015277;28;20035;-77
2023/04/07 09:38:26;;;;;;;;;;;;;;;8.96;100.00;101694.53;5029114;28;20591;-78
2023/04/07 09:40:51;;;;;;;;;;;;;;;8.98;100.00;101695.31;5031112;28;19970;-77
2023/04/07 09:43:17;;;;;;;;;;;;;;;8.87;100.00;101695.06;5029048;28;20359;-77
2023/04/07 09:45:42;;;;;;;;;;;;;;;8.72;100.00;101690.56;5024287;28;20272;-78
2023/04/07 09:48:17;;;;;;;;;;;;;;;8.69;100.00;101695.16;5023841;28;20007;-77
2023/04/07 09:50:44;;;;;;;;;;;;;;;8.65;100.00;101690.91;5023789;28;19928;-78
2023/04/07 09:53:09;;;;;;;;;;;;;;;8.68;100.00;101693.41;5012711;28;19921;-77
2023/04/07 09:55:35;;;;;;;;;;;;;;;8.84;100.00;101697.91;5026656;28;19920;-77
2023/04/07 09:58:00;;;;;;;;;;;;;;;8.94;100.00;101692.91;5011101;28;19927;-77
2023/04/07 10:00:25;;;;;;;;;;;;;;;9.08;100.00;101701.00;5025009;28;20378;-77
2023/04/07 10:02:51;;;;;;;;;;;;;;;9.12;100.00;101697.19;5026820;28;19920;-77
2023/04/07 10:05:19;;;;;;;;;;;;;;;9.07;100.00;101703.78;5028142;28;19920;-78
2023/04/07 10:07:45;;;;;;;;;;;;;;;8.98;100.00;101691.78;5028870;28;19928;-78
2023/04/07 10:10:10;;;;;;;;;;;;;;;8.96;100.00;101699.88;5025314;28;20013;-78
2023/04/07 10:12:40;;;;;;;;;;;;;;;8.93;100.00;101709.91;5027486;28;20042;-77
2023/04/07 10:15:05;;;;;;;;;;;;;;;8.73;100.00;101711.91;5007845;28;19940;-78
2023/04/07 10:17:31;;;;;;;;;;;;;;;8.77;100.00;101713.44;5007821;28;19921;-77
2023/04/07 10:19:57;;;;;;;;;;;;;;;8.73;100.00;101709.25;5017439;28;19916;-79
2023/04/07 10:22:22;;;;;;;;;;;;;;;8.62;100.00;101717.84;5009996;28;19928;-78
2023/04/07 10:24:54;;;;;;;;;;;;;;;8.68;100.00;101711.31;5025360;28;19963;-78
2023/04/07 10:27:20;;;;;;;;;;;;;;;8.72;100.00;101714.66;5026022;28;19924;-78
2023/04/07 10:29:47;;;;;;;;;;;;;;;8.75;100.00;101709.13;5013951;28;19983;-78
2023/04/07 10:32:13;;;;;;;;;;;;;;;8.92;100.00;101717.06;5008804;28;19920;-77
2023/04/07 10:34:52;;;;;;;;;;;;;;;8.90;100.00;101718.13;5025743;28;19929;-77
2023/04/07 10:37:20;;;;;;;;;;;;;;;8.94;100.00;101722.34;5024613;28;19957;-76
2023/04/07 10:39:45;;;;;;;;;;;;;;;8.82;100.00;101721.25;5026813;28;19921;-77
2023/04/07 10:42:29;;;;;;;;;;;;;;;8.76;100.00;101718.91;5029042;28;19924;-77
2023/04/07 10:44:55;;;;;;;;;;;;;;;8.64;100.00;101725.81;5024128;28;20024;-78
2023/04/07 10:47:20;;;;;;;;;;;;;;;8.67;100.00;101725.63;5014415;28;19921;-77
2023/04/07 10:50:04;;;;;;;;;;;;;;;8.62;100.00;101728.56;5005723;28;19925;-77
2023/04/07 10:52:29;;;;;;;;;;;;;;;8.60;100.00;101726.91;5021168;28;19925;-77
2023/04/07 10:55:14;;;;;;;;;;;;;;;8.67;100.00;101731.84;5028900;28;19968;-77
2023/04/07 10:57:41;;;;;;;;;;;;;;;8.65;100.00;101730.22;5022859;28;19936;-77
2023/04/07 11:00:08;;;;;;;;;;;;;;;8.70;100.00;101733.50;4998033;28;19921;-78
2023/04/07 11:02:33;;;;;;;;;;;;;;;8.60;100.00;101726.91;5029301;28;19920;-76
2023/04/07 11:04:59;;;;;;;;;;;;;;;8.57;100.00;101735.13;5015107;28;21272;-77
2023/04/07 11:07:41;;;;;;;;;;;;;;;8.70;100.00;101737.03;5013588;28;19943;-78
2023/04/07 11:10:10;;;;;;;;;;;;;;;8.83;100.00;101729.19;4999212;28;19929;-78
2023/04/07 11:12:36;;;;;;;;;;;;;;;8.83;100.00;101742.56;5013950;28;19927;-78
2023/04/07 11:15:15;;;;;;;;;;;;;;;8.93;100.00;101750.94;5007342;28;19921;-78
2023/04/07 11:17:40;;;;;;;;;;;;;;;9.07;100.00;101743.97;5011472;28;19920;-77
2023/04/07 11:20:06;;;;;;;;;;;;;;;9.12;100.00;101741.88;5004149;28;20304;-77
2023/04/07 11:22:33;;;;;;;;;;;;;;;9.22;100.00;101743.06;5016839;28;19920;-77
2023/04/07 11:24:58;;;;;;;;;;;;;;;9.29;100.00;101743.56;5023208;28;19917;-77
2023/04/07 11:27:23;;;;;;;;;;;;;;;9.14;100.00;101695.28;5026752;28;19928;-77
2023/04/07 11:29:49;;;;;;;;;;;;;;;9.43;100.00;101740.97;5021885;28;19925;-77
2023/04/07 11:32:14;;;;;;;;;;;;;;;9.45;100.00;101743.53;5009801;28;19967;-77
2023/04/07 11:34:39;;;;;;;;;;;;;;;9.43;100.00;101740.06;5029421;28;20607;-76
2023/04/07 11:37:20;;;;;;;;;;;;;;;9.46;100.00;101745.25;5015144;28;19928;-77
2023/04/07 11:39:56;;;;;;;;;;;;;;;9.32;100.00;101748.75;5018717;28;20481;-78
2023/04/07 11:42:40;;;;;;;;;;;;;;;9.14;100.00;101748.88;5018198;28;19925;-76
2023/04/07 11:45:06;;;;;;;;;;;;;;;8.88;100.00;101752.16;5011248;28;19924;-77
2023/04/07 11:47:34;;;;;;;;;;;;;;;9.00;100.00;101764.88;5025989;28;20345;-77
2023/04/07 11:50:00;;;;;;;;;;;;;;;8.99;100.00;101764.00;5017765;28;19948;-78
2023/04/07 11:52:25;;;;;;;;;;;;;;;8.88;100.00;101760.19;5009943;28;19967;-79
2023/04/07 11:54:51;;;;;;;;;;;;;;;8.95;100.00;101766.94;5031909;28;20441;-76
2023/04/07 11:57:26;;;;;;;;;;;;;;;8.78;100.00;101771.41;5020777;28;20007;-77
2023/04/07 12:00:07;;;;;;;;;;;;;;;8.74;100.00;101764.50;5015353;28;19947;-75
2023/04/07 12:02:33;;;;;;;;;;;;;;;8.70;100.00;101774.50;5014624;28;19943;-77
2023/04/07 12:04:58;;;;;;;;;;;;;;;8.83;100.00;101771.16;5023541;28;20465;-76
2023/04/07 12:07:23;;;;;;;;;;;;;;;8.93;100.00;101777.72;5018904;28;19927;-77
2023/04/07 12:09:49;;;;;;;;;;;;;;;9.00;100.00;101778.28;5030184;28;19924;-77
2023/04/07 12:12:14;;;;;;;;;;;;;;;9.00;100.00;101778.28;5017078;28;20347;-78
2023/04/07 12:14:39;;;;;;;;;;;;;;;9.16;100.00;101780.91;5026312;28;19944;-77
2023/04/07 12:17:06;;;;;;;;;;;;;;;9.16;100.00;101788.97;5032646;28;19928;-77
2023/04/07 12:19:32;;;;;;;;;;;;;;;9.30;100.00;101794.41;5013335;28;19917;-77
2023/04/07 12:21:57;;;;;;;;;;;;;;;9.27;100.00;101785.69;5027495;28;19924;-79
2023/04/07 12:24:22;;;;;;;;;;;;;;;9.38;100.00;101783.25;5018679;28;19964;-79
2023/04/07 12:26:48;;;;;;;;;;;;;;;9.45;100.00;101789.97;5025628;28;20043;-78
2023/04/07 12:29:13;;;;;;;;;;;;;;;9.59;100.00;101790.97;5028156;28;19943;-77
2023/04/07 12:31:38;;;;;;;;;;;;;;;9.74;100.00;101791.91;5028376;28;20407;-77